Terminal Aerodrome Forecast
Issued by NWS Rapid City, SD

Home | Current Version | Previous Version | Text Only | Print | Product List | Glossary On
Versions: 1 2 3 4 5 6 7 8 9 10 11 12 13 14 15 16 17 18 19 20 21 22 23 24 25 26 27
000
FTUS43 KUNR 300500
TAFRAP
TAF
KRAP 300536Z 3006/0106 35008KT 2SM +RA BR OVC010
      TEMPO 3006/3009 1SM TSRA OVC008CB
     FM301100 35024G35KT 3SM -RA OVC015
     FM301800 33025G35KT P6SM -SHRA BKN040
     FM302300 33017KT P6SM BKN060=

USA.gov is the U.S. government's official web portal to all federal, state and local government web resources and services.